Time;durP1;ratioP1;P1;durP2;ratioP2;P2;SDS_P1;SDS_P2;PMS_P1;PMS_P2;Temp;Humidity;BMP_temperature;BMP_pressure;BME280_temperature;BME280_humidity;BME280_pressure;Samples;Min_cycle;Max_cycle;Signal;HPM_P1;HPM_P2
2023/05/03 00:02:20;;;;;;;;;;;;;;;10.26;65.20;101163.46;102782;277;105550;-57
2023/05/03 00:04:58;;;;;;;;;;;;;;;10.21;65.32;101167.41;102747;277;114888;-54
2023/05/03 00:07:34;;;;;;;;;;;;;;;10.16;65.38;101165.31;102739;277;94016;-54
2023/05/03 00:10:09;;;;;;;;;;;;;;;10.15;65.39;101165.05;102772;277;97570;-55
2023/05/03 00:12:42;;;;;;;;;;;;;;;10.11;65.53;101167.95;102729;277;119520;-54
2023/05/03 00:15:22;;;;;;;;;;;;;;;10.07;65.71;101170.82;102751;277;105765;-55
2023/05/03 00:18:06;;;;;;;;;;;;;;;10.05;65.78;101167.51;102722;277;114124;-56
2023/05/03 00:20:45;;;;;;;;;;;;;;;10.04;65.83;101169.40;102702;277;94223;-53
2023/05/03 00:23:21;;;;;;;;;;;;;;;10.04;65.97;101171.19;102723;277;98283;-54
2023/05/03 00:25:58;;;;;;;;;;;;;;;10.03;66.02;101168.25;102751;277;119701;-54
2023/05/03 00:28:33;;;;;;;;;;;;;;;10.05;65.97;101160.31;102741;277;105400;-57
2023/05/03 00:31:15;;;;;;;;;;;;;;;10.06;66.02;101160.35;102724;277;114528;-55
2023/05/03 00:33:49;;;;;;;;;;;;;;;10.03;66.00;101161.20;102767;277;93355;-55
2023/05/03 00:36:28;;;;;;;;;;;;;;;10.03;66.02;101155.31;102730;277;97296;-58
2023/05/03 00:39:03;;;;;;;;;;;;;;;10.02;65.96;101151.63;102777;276;119870;-57
2023/05/03 00:41:38;;;;;;;;;;;;;;;10.00;65.76;101152.17;102789;277;104923;-54
2023/05/03 00:44:12;;;;;;;;;;;;;;;9.92;65.87;101160.30;102741;276;115081;-55
2023/05/03 00:46:50;;;;;;;;;;;;;;;9.86;65.93;101162.19;102745;277;94291;-54
2023/05/03 00:49:27;;;;;;;;;;;;;;;9.80;65.97;101162.17;102773;276;97440;-54
2023/05/03 00:52:00;;;;;;;;;;;;;;;9.75;66.04;101172.18;102760;277;120759;-54
2023/05/03 00:54:34;;;;;;;;;;;;;;;9.70;66.11;101177.27;102764;277;104543;-56
2023/05/03 00:57:08;;;;;;;;;;;;;;;9.64;66.33;101181.02;102747;277;114232;-58
2023/05/03 00:59:47;;;;;;;;;;;;;;;9.57;66.33;101187.13;102741;277;93813;-55
2023/05/03 01:02:27;;;;;;;;;;;;;;;9.49;66.32;101188.73;102769;277;95849;-56
2023/05/03 01:05:06;;;;;;;;;;;;;;;9.40;66.51;101191.66;102770;277;118918;-55
2023/05/03 01:07:46;;;;;;;;;;;;;;;9.32;66.44;101198.99;102739;277;106098;-54
2023/05/03 01:10:31;;;;;;;;;;;;;;;9.23;66.51;101199.91;102729;277;113975;-55
2023/05/03 01:13:11;;;;;;;;;;;;;;;9.15;66.54;101200.61;102760;277;96426;-54
2023/05/03 01:15:54;;;;;;;;;;;;;;;9.12;66.65;101198.83;102786;277;97572;-54
2023/05/03 01:18:31;;;;;;;;;;;;;;;9.09;66.63;101203.56;102777;277;118304;-54
2023/05/03 01:21:11;;;;;;;;;;;;;;;9.05;66.69;101204.25;102758;265;104570;-55
2023/05/03 01:23:46;;;;;;;;;;;;;;;9.01;66.66;101200.66;102735;277;112566;-53
2023/05/03 01:26:21;;;;;;;;;;;;;;;8.97;66.60;101202.17;102740;277;95760;-57
2023/05/03 01:28:59;;;;;;;;;;;;;;;8.95;66.37;101201.16;102562;277;97675;-57
2023/05/03 01:31:51;;;;;;;;;;;;;;;8.87;66.33;101200.65;102737;277;120056;-53
2023/05/03 01:34:33;;;;;;;;;;;;;;;8.76;66.19;101204.05;102622;277;104519;-54
2023/05/03 01:37:13;;;;;;;;;;;;;;;8.64;66.16;101205.08;102559;278;114202;-54
2023/05/03 01:39:52;;;;;;;;;;;;;;;8.54;66.33;101213.80;102535;277;95236;-54
2023/05/03 01:42:33;;;;;;;;;;;;;;;8.45;66.45;101219.69;102546;266;95799;-54
2023/05/03 01:45:08;;;;;;;;;;;;;;;8.32;66.58;101223.28;102505;277;119670;-56
2023/05/03 01:47:49;;;;;;;;;;;;;;;8.21;66.60;101223.09;102557;277;104387;-56
2023/05/03 01:50:24;;;;;;;;;;;;;;;8.09;66.86;101226.10;102542;277;114378;-54
2023/05/03 01:52:59;;;;;;;;;;;;;;;8.01;66.99;101226.05;102563;277;93546;-54
2023/05/03 01:55:32;;;;;;;;;;;;;;;7.88;67.27;101226.98;102553;277;97959;-54
2023/05/03 01:58:10;;;;;;;;;;;;;;;7.78;67.42;101224.44;102573;277;119443;-52
2023/05/03 02:00:51;;;;;;;;;;;;;;;7.70;67.57;101221.45;102548;277;105434;-54
2023/05/03 02:03:31;;;;;;;;;;;;;;;7.65;68.07;101221.55;102507;277;114692;-55
2023/05/03 02:06:04;;;;;;;;;;;;;;;7.63;68.45;101217.43;102550;277;92464;-55
2023/05/03 02:08:40;;;;;;;;;;;;;;;7.60;68.69;101211.27;102555;277;97963;-54
2023/05/03 02:11:16;;;;;;;;;;;;;;;7.62;68.83;101212.48;102536;277;118304;-54
2023/05/03 02:13:52;;;;;;;;;;;;;;;7.66;69.23;101215.39;102562;277;106421;-54
2023/05/03 02:16:28;;;;;;;;;;;;;;;7.71;69.46;101229.23;102546;277;115037;-56
2023/05/03 02:19:07;;;;;;;;;;;;;;;7.80;69.64;101227.96;102486;277;98125;-57
2023/05/03 02:21:46;;;;;;;;;;;;;;;7.85;69.74;101221.52;102573;277;97333;-55
2023/05/03 02:24:24;;;;;;;;;;;;;;;7.92;69.98;101231.40;102514;277;119989;-56
2023/05/03 02:27:00;;;;;;;;;;;;;;;7.95;70.08;101238.35;102546;277;105430;-54
2023/05/03 02:29:33;;;;;;;;;;;;;;;8.01;70.17;101242.01;102531;277;114768;-55
2023/05/03 02:32:10;;;;;;;;;;;;;;;8.12;70.28;101239.10;102547;277;97219;-55
2023/05/03 02:34:47;;;;;;;;;;;;;;;8.23;70.21;101233.84;102564;277;96664;-57
2023/05/03 02:37:29;;;;;;;;;;;;;;;8.33;70.23;101232.84;102517;278;119595;-57
2023/05/03 02:40:06;;;;;;;;;;;;;;;8.36;70.11;101236.50;102593;277;105433;-56
2023/05/03 02:42:40;;;;;;;;;;;;;;;8.39;69.99;101244.98;102569;277;113881;-56
2023/05/03 02:45:18;;;;;;;;;;;;;;;8.42;69.92;101240.59;102579;277;94618;-56
2023/05/03 02:47:57;;;;;;;;;;;;;;;8.43;69.82;101233.61;102611;277;98078;-57
2023/05/03 02:50:36;;;;;;;;;;;;;;;8.44;69.85;101231.61;102618;278;119172;-56
2023/05/03 02:53:13;;;;;;;;;;;;;;;8.45;69.55;101233.46;102677;278;104213;-56
2023/05/03 02:55:50;;;;;;;;;;;;;;;8.43;69.50;101232.26;102621;278;114593;-57
2023/05/03 02:58:29;;;;;;;;;;;;;;;8.38;69.37;101228.95;102611;278;94258;-57
2023/05/03 03:01:05;;;;;;;;;;;;;;;8.36;69.34;101233.86;102640;278;96875;-54
2023/05/03 03:03:39;;;;;;;;;;;;;;;8.32;69.28;101237.31;102605;278;118582;-54
2023/05/03 03:06:18;;;;;;;;;;;;;;;8.32;69.33;101234.58;102639;277;104904;-54
2023/05/03 03:08:58;;;;;;;;;;;;;;;8.31;69.25;101241.48;102598;278;113860;-54
2023/05/03 03:11:34;;;;;;;;;;;;;;;8.30;69.22;101241.63;102621;278;94645;-54
2023/05/03 03:14:14;;;;;;;;;;;;;;;8.26;69.39;101240.34;102662;278;98055;-54
2023/05/03 03:16:46;;;;;;;;;;;;;;;8.21;69.36;101240.10;102634;278;120081;-57
2023/05/03 03:19:26;;;;;;;;;;;;;;;8.19;69.29;101249.33;102643;278;105766;-56
2023/05/03 03:22:07;;;;;;;;;;;;;;;8.18;69.32;101258.23;102606;278;114023;-53
2023/05/03 03:24:48;;;;;;;;;;;;;;;8.18;69.54;101259.65;102118;279;568384;-54
2023/05/03 03:27:27;;;;;;;;;;;;;;;8.16;69.68;101264.14;102618;278;97791;-54
2023/05/03 03:30:06;;;;;;;;;;;;;;;8.13;69.78;101268.75;102651;278;120110;-57
2023/05/03 03:32:41;;;;;;;;;;;;;;;8.10;69.80;101267.47;102671;278;103658;-57
2023/05/03 03:35:17;;;;;;;;;;;;;;;8.08;69.95;101267.45;102629;278;114918;-56
2023/05/03 03:37:53;;;;;;;;;;;;;;;8.10;69.92;101271.73;102634;278;93826;-56
2023/05/03 03:40:29;;;;;;;;;;;;;;;8.13;69.95;101275.98;102665;277;96182;-56
2023/05/03 03:43:04;;;;;;;;;;;;;;;8.15;69.93;101282.77;102620;278;119831;-56
2023/05/03 03:45:40;;;;;;;;;;;;;;;8.19;69.85;101281.48;102624;278;105737;-55
2023/05/03 03:48:17;;;;;;;;;;;;;;;8.21;69.99;101277.71;102650;277;114321;-54
2023/05/03 03:50:54;;;;;;;;;;;;;;;8.25;69.90;101285.30;102630;278;91797;-56
2023/05/03 03:53:35;;;;;;;;;;;;;;;8.31;69.85;101285.69;102533;277;97397;-56
2023/05/03 03:56:14;;;;;;;;;;;;;;;8.38;69.76;101289.80;102530;278;119601;-54
2023/05/03 03:58:58;;;;;;;;;;;;;;;8.48;69.85;101289.38;102533;277;105548;-54
2023/05/03 04:01:35;;;;;;;;;;;;;;;8.61;69.71;101292.27;102512;278;114353;-54
2023/05/03 04:04:15;;;;;;;;;;;;;;;8.79;69.44;101297.91;102522;278;93853;-55
2023/05/03 04:06:56;;;;;;;;;;;;;;;8.92;69.13;101303.84;102557;277;97577;-56
2023/05/03 04:09:29;;;;;;;;;;;;;;;8.94;69.00;101302.91;102543;277;119948;-56
2023/05/03 04:12:04;;;;;;;;;;;;;;;8.99;68.74;101310.10;102603;277;104669;-59
2023/05/03 04:14:38;;;;;;;;;;;;;;;9.12;68.40;101313.30;102572;278;114630;-57
2023/05/03 04:17:15;;;;;;;;;;;;;;;9.28;68.26;101312.89;102513;277;93144;-57
2023/05/03 04:19:52;;;;;;;;;;;;;;;9.36;68.08;101313.45;102560;277;95896;-55
2023/05/03 04:22:31;;;;;;;;;;;;;;;9.50;67.73;101315.92;102557;278;120288;-53
2023/05/03 04:25:08;;;;;;;;;;;;;;;9.64;67.39;101313.31;102549;277;105331;-55
2023/05/03 04:27:41;;;;;;;;;;;;;;;9.88;67.04;101313.14;102514;277;114231;-54
2023/05/03 04:30:16;;;;;;;;;;;;;;;10.08;66.91;101315.85;102562;277;95193;-57
2023/05/03 04:32:48;;;;;;;;;;;;;;;10.39;66.50;101317.56;102547;278;96373;-57
2023/05/03 04:35:24;;;;;;;;;;;;;;;10.78;66.03;101319.02;102532;278;120109;-55
2023/05/03 04:38:03;;;;;;;;;;;;;;;11.10;65.34;101322.11;102556;278;104950;-53
2023/05/03 04:40:41;;;;;;;;;;;;;;;11.64;65.05;101322.11;102522;277;114677;-55
2023/05/03 04:43:14;;;;;;;;;;;;;;;13.21;64.23;101325.77;102556;278;93183;-56
2023/05/03 04:45:48;;;;;;;;;;;;;;;14.49;62.64;101328.27;102623;277;95701;-58
2023/05/03 04:48:24;;;;;;;;;;;;;;;14.72;60.80;101331.23;102535;278;118921;-57
2023/05/03 04:50:56;;;;;;;;;;;;;;;14.45;59.74;101330.19;102536;277;104576;-54
2023/05/03 04:53:36;;;;;;;;;;;;;;;13.89;59.40;101331.26;102542;277;112964;-55
2023/05/03 04:56:09;;;;;;;;;;;;;;;13.26;58.71;101330.89;102534;266;94859;-58
2023/05/03 04:58:46;;;;;;;;;;;;;;;12.75;58.26;101334.80;102535;277;97504;-57
2023/05/03 05:01:25;;;;;;;;;;;;;;;12.65;58.26;101339.88;102506;277;118109;-56
2023/05/03 05:04:00;;;;;;;;;;;;;;;13.86;58.22;101339.92;102520;278;105091;-56
2023/05/03 05:06:40;;;;;;;;;;;;;;;15.91;57.12;101336.60;102511;278;114855;-57
2023/05/03 05:09:29;;;;;;;;;;;;;;;18.12;55.09;101337.40;102553;277;95124;-57
2023/05/03 05:12:06;;;;;;;;;;;;;;;19.54;52.21;101334.02;102519;278;97689;-55
2023/05/03 05:14:40;;;;;;;;;;;;;;;20.46;50.38;101336.41;102529;277;119065;-58
2023/05/03 05:17:20;;;;;;;;;;;;;;;20.97;48.61;101337.86;102440;278;103961;-58
2023/05/03 05:20:00;;;;;;;;;;;;;;;21.01;46.88;101341.02;102548;277;113643;-56
2023/05/03 05:22:38;;;;;;;;;;;;;;;20.91;45.93;101344.68;102521;277;94529;-55
2023/05/03 05:25:11;;;;;;;;;;;;;;;20.84;44.92;101345.70;102562;277;97287;-54
2023/05/03 05:27:49;;;;;;;;;;;;;;;21.61;44.24;101339.17;102533;277;119525;-55
2023/05/03 05:30:25;;;;;;;;;;;;;;;22.85;43.02;101347.16;102551;277;106534;-58
2023/05/03 05:33:05;;;;;;;;;;;;;;;23.51;41.72;101346.25;102516;277;114392;-59
2023/05/03 05:35:40;;;;;;;;;;;;;;;24.19;40.01;101342.33;102580;277;94433;-55
2023/05/03 05:38:18;;;;;;;;;;;;;;;24.53;39.13;101335.64;102529;266;98325;-55
2023/05/03 05:40:55;;;;;;;;;;;;;;;25.12;38.06;101340.82;102542;277;118799;-59
2023/05/03 05:43:31;;;;;;;;;;;;;;;25.13;37.38;101339.11;102517;277;104446;-58
2023/05/03 05:46:12;;;;;;;;;;;;;;;25.51;36.01;101342.33;102507;277;114678;-56
2023/05/03 05:48:51;;;;;;;;;;;;;;;25.86;35.48;101346.02;102524;277;94268;-55
2023/05/03 05:51:26;;;;;;;;;;;;;;;26.36;34.89;101347.14;102591;277;96007;-55
2023/05/03 05:54:04;;;;;;;;;;;;;;;26.81;34.33;101348.64;102589;277;118704;-56
2023/05/03 05:56:44;;;;;;;;;;;;;;;27.03;33.44;101349.98;102509;277;106045;-55
2023/05/03 05:59:24;;;;;;;;;;;;;;;27.52;32.40;101355.48;102550;277;115231;-56
2023/05/03 06:02:03;;;;;;;;;;;;;;;27.71;31.66;101361.17;102568;277;94215;-59
2023/05/03 06:04:42;;;;;;;;;;;;;;;27.82;31.21;101362.77;102547;277;96302;-58
2023/05/03 06:07:21;;;;;;;;;;;;;;;28.06;30.68;101365.29;102550;277;119737;-58
2023/05/03 06:09:54;;;;;;;;;;;;;;;28.37;30.14;101365.97;102507;277;105898;-60
2023/05/03 06:12:33;;;;;;;;;;;;;;;28.62;28.38;101364.71;102508;277;114503;-58
2023/05/03 06:15:07;;;;;;;;;;;;;;;28.69;27.77;101366.48;102547;267;93509;-57
2023/05/03 06:17:48;;;;;;;;;;;;;;;28.92;27.44;101369.96;102576;277;98106;-59
2023/05/03 06:20:28;;;;;;;;;;;;;;;29.21;26.98;101367.84;102522;277;119831;-55
2023/05/03 06:23:10;;;;;;;;;;;;;;;29.68;26.22;101372.41;102546;277;106122;-54
2023/05/03 06:25:48;;;;;;;;;;;;;;;29.58;26.06;101372.29;102510;277;114074;-56
2023/05/03 06:28:26;;;;;;;;;;;;;;;29.53;25.61;101373.66;102528;277;94386;-57
2023/05/03 06:31:08;;;;;;;;;;;;;;;29.73;24.73;101377.56;102534;277;96547;-59
2023/05/03 06:33:46;;;;;;;;;;;;;;;29.62;24.49;101377.58;102506;277;119257;-58
2023/05/03 06:36:19;;;;;;;;;;;;;;;29.84;24.10;101377.51;102552;277;106093;-58
2023/05/03 06:38:57;;;;;;;;;;;;;;;30.58;23.20;101375.35;102517;278;114646;-57
2023/05/03 06:41:35;;;;;;;;;;;;;;;29.78;22.76;101379.01;102553;277;94940;-60
2023/05/03 06:44:16;;;;;;;;;;;;;;;29.35;23.25;101377.48;102536;277;97206;-59
2023/05/03 06:46:58;;;;;;;;;;;;;;;29.84;22.99;101377.80;102575;277;119364;-59
2023/05/03 06:49:35;;;;;;;;;;;;;;;29.78;22.75;101381.28;102634;278;106237;-59
2023/05/03 06:52:16;;;;;;;;;;;;;;;29.89;22.89;101382.26;102625;278;114807;-57
2023/05/03 06:54:50;;;;;;;;;;;;;;;30.14;22.58;101383.40;102587;278;93486;-58
2023/05/03 06:57:26;;;;;;;;;;;;;;;30.96;22.32;101380.10;102627;278;97414;-60
2023/05/03 07:00:06;;;;;;;;;;;;;;;30.97;22.18;101381.19;102586;278;119930;-54
2023/05/03 07:02:39;;;;;;;;;;;;;;;30.74;21.97;101383.73;102652;278;105539;-56
2023/05/03 07:05:12;;;;;;;;;;;;;;;30.85;21.75;101383.80;102609;278;114602;-56
2023/05/03 07:07:45;;;;;;;;;;;;;;;31.06;21.68;101385.15;102631;278;93459;-56
2023/05/03 07:10:24;;;;;;;;;;;;;;;29.60;21.42;101395.64;102603;278;98131;-56
2023/05/03 07:12:59;;;;;;;;;;;;;;;26.53;22.32;101398.23;102611;277;117602;-55
2023/05/03 07:15:32;;;;;;;;;;;;;;;26.07;23.05;101399.83;102635;278;105872;-59
2023/05/03 07:18:06;;;;;;;;;;;;;;;27.03;23.13;101394.83;102654;278;114584;-59
2023/05/03 07:20:40;;;;;;;;;;;;;;;27.94;22.94;101397.08;102629;278;93551;-58
2023/05/03 07:23:14;;;;;;;;;;;;;;;28.76;22.56;101390.48;102638;278;97979;-57
2023/05/03 07:25:50;;;;;;;;;;;;;;;29.32;22.35;101388.69;102614;278;119363;-59
2023/05/03 07:28:26;;;;;;;;;;;;;;;29.52;22.12;101388.48;102560;266;106484;-58
2023/05/03 07:31:01;;;;;;;;;;;;;;;30.02;21.63;101391.92;102587;277;112896;-56
2023/05/03 07:33:37;;;;;;;;;;;;;;;28.78;21.76;101394.60;102559;277;94991;-56
2023/05/03 07:36:12;;;;;;;;;;;;;;;28.29;22.26;101392.40;102568;277;98072;-57
2023/05/03 07:38:49;;;;;;;;;;;;;;;28.35;22.14;101398.01;102499;277;119978;-57
2023/05/03 07:41:26;;;;;;;;;;;;;;;27.55;22.27;101401.42;102553;277;105976;-56
2023/05/03 07:43:59;;;;;;;;;;;;;;;25.66;23.13;101403.48;102566;277;113619;-56
2023/05/03 07:46:38;;;;;;;;;;;;;;;24.71;24.08;101402.48;102540;277;93910;-57
2023/05/03 07:49:13;;;;;;;;;;;;;;;24.75;24.51;101400.41;102544;277;95291;-57
2023/05/03 07:51:55;;;;;;;;;;;;;;;24.31;24.52;101403.41;102584;277;120118;-58
2023/05/03 07:54:34;;;;;;;;;;;;;;;23.49;25.36;101411.61;102601;278;105781;-56
2023/05/03 07:57:10;;;;;;;;;;;;;;;24.18;25.94;101404.70;102543;278;113186;-57
2023/05/03 07:59:46;;;;;;;;;;;;;;;25.33;25.07;101397.95;102534;278;94481;-56
2023/05/03 08:02:21;;;;;;;;;;;;;;;26.34;24.77;101398.09;102565;278;95527;-55
2023/05/03 08:05:03;;;;;;;;;;;;;;;27.49;23.93;101401.05;102530;278;119179;-59
2023/05/03 08:07:44;;;;;;;;;;;;;;;27.35;23.54;101399.30;102559;277;104432;-59
2023/05/03 08:10:25;;;;;;;;;;;;;;;25.42;23.54;101399.20;102528;278;114689;-56
2023/05/03 08:13:03;;;;;;;;;;;;;;;23.46;24.34;101412.63;102516;278;94389;-54
2023/05/03 08:15:39;;;;;;;;;;;;;;;21.84;25.28;101410.50;102571;277;97991;-58
2023/05/03 08:18:19;;;;;;;;;;;;;;;21.14;26.34;101409.79;102576;277;119773;-59
2023/05/03 08:20:55;;;;;;;;;;;;;;;22.05;27.24;101409.11;102541;277;104248;-54
2023/05/03 08:23:33;;;;;;;;;;;;;;;23.85;27.05;101402.13;102499;326;114929;-56
2023/05/03 08:26:08;;;;;;;;;;;;;;;25.74;26.70;101393.63;102486;278;93306;-59
2023/05/03 08:28:42;;;;;;;;;;;;;;;26.51;25.60;101392.38;102550;278;96870;-58
2023/05/03 08:31:21;;;;;;;;;;;;;;;25.46;25.38;101402.75;102567;277;119974;-55
2023/05/03 08:34:00;;;;;;;;;;;;;;;23.76;25.75;101406.91;102546;278;106727;-55
2023/05/03 08:36:33;;;;;;;;;;;;;;;22.70;26.11;101410.95;102548;278;113662;-56
2023/05/03 08:39:12;;;;;;;;;;;;;;;22.61;27.12;101409.02;102572;278;93160;-56
2023/05/03 08:41:45;;;;;;;;;;;;;;;23.72;27.33;101410.77;102546;277;97714;-55
2023/05/03 08:44:24;;;;;;;;;;;;;;;24.99;26.94;101403.59;102524;277;120742;-55
2023/05/03 08:47:00;;;;;;;;;;;;;;;24.85;26.19;101410.88;102554;278;104603;-58
2023/05/03 08:49:39;;;;;;;;;;;;;;;23.18;26.25;101422.16;102502;278;114191;-56
2023/05/03 08:52:17;;;;;;;;;;;;;;;22.79;27.09;101423.95;102495;277;94881;-57
2023/05/03 08:54:56;;;;;;;;;;;;;;;23.61;27.14;101419.91;102577;277;98231;-52
2023/05/03 08:57:34;;;;;;;;;;;;;;;24.24;26.63;101414.64;102552;278;118200;-55
2023/05/03 09:00:11;;;;;;;;;;;;;;;25.22;26.67;101415.76;102529;278;104373;-55
2023/05/03 09:02:45;;;;;;;;;;;;;;;26.02;26.17;101412.92;102509;277;115186;-56
2023/05/03 09:05:37;;;;;;;;;;;;;;;25.27;25.26;101417.60;102530;277;94449;-58
2023/05/03 09:08:21;;;;;;;;;;;;;;;23.56;25.50;101425.29;102540;277;96740;-59
2023/05/03 09:10:59;;;;;;;;;;;;;;;22.37;26.00;101430.89;102524;277;119509;-59
2023/05/03 09:13:39;;;;;;;;;;;;;;;22.01;26.52;101433.83;102544;277;105997;-59
2023/05/03 09:16:22;;;;;;;;;;;;;;;21.76;26.71;101427.84;102490;278;112075;-58
2023/05/03 09:19:03;;;;;;;;;;;;;;;21.75;26.83;101428.50;102574;277;94877;-55
2023/05/03 09:21:41;;;;;;;;;;;;;;;22.35;26.60;101422.42;102540;277;97212;-56
2023/05/03 09:24:19;;;;;;;;;;;;;;;22.49;26.20;101418.42;102526;278;120222;-55
2023/05/03 09:26:58;;;;;;;;;;;;;;;22.08;26.02;101418.08;102576;278;104361;-63
2023/05/03 09:29:37;;;;;;;;;;;;;;;22.00;26.42;101420.63;102551;278;114807;-63
2023/05/03 09:32:23;;;;;;;;;;;;;;;22.19;26.74;101418.15;102546;277;94237;-63
2023/05/03 09:35:09;;;;;;;;;;;;;;;22.36;26.99;101418.36;102548;277;96555;-62
2023/05/03 09:37:49;;;;;;;;;;;;;;;21.86;26.37;101427.80;102525;277;119675;-62
2023/05/03 09:40:28;;;;;;;;;;;;;;;21.01;26.50;101432.54;102558;277;105738;-62
2023/05/03 09:43:13;;;;;;;;;;;;;;;20.78;26.91;101428.15;102533;277;114828;-61
2023/05/03 09:45:48;;;;;;;;;;;;;;;20.64;27.32;101417.73;102554;277;94427;-63
2023/05/03 09:48:30;;;;;;;;;;;;;;;20.94;27.83;101420.80;102566;277;96993;-63
2023/05/03 09:51:07;;;;;;;;;;;;;;;21.14;27.89;101427.47;102532;277;120773;-62
2023/05/03 09:53:48;;;;;;;;;;;;;;;20.36;27.80;101422.67;102541;277;105244;-63
2023/05/03 09:56:31;;;;;;;;;;;;;;;19.66;28.03;101436.98;102531;277;114069;-63
2023/05/03 09:59:13;;;;;;;;;;;;;;;19.62;28.27;101429.92;102492;277;94902;-64
2023/05/03 10:01:50;;;;;;;;;;;;;;;19.28;28.51;101431.46;102535;277;97886;-63
2023/05/03 10:04:28;;;;;;;;;;;;;;;19.22;28.90;101435.27;102547;277;119675;-63
2023/05/03 10:07:06;;;;;;;;;;;;;;;19.21;29.30;101436.78;102572;277;104888;-63
2023/05/03 10:09:43;;;;;;;;;;;;;;;19.63;29.76;101436.88;102545;278;114109;-62
2023/05/03 10:12:19;;;;;;;;;;;;;;;19.94;30.00;101443.05;102521;277;93258;-61
2023/05/03 10:15:01;;;;;;;;;;;;;;;20.31;30.04;101437.25;102582;277;97142;-59
2023/05/03 10:17:41;;;;;;;;;;;;;;;20.70;29.90;101430.77;102593;277;119384;-63
2023/05/03 10:20:21;;;;;;;;;;;;;;;21.07;29.51;101428.29;102544;277;105841;-59
2023/05/03 10:23:11;;;;;;;;;;;;;;;21.13;28.93;101432.77;102525;277;114344;-62
2023/05/03 10:26:18;;;;;;;;;;;;;;;20.37;29.04;101434.77;102508;277;94273;-55
2023/05/03 10:28:52;;;;;;;;;;;;;;;19.16;29.52;101438.91;102579;277;98046;-55
2023/05/03 10:31:57;;;;;;;;;;;;;;;18.40;29.73;101439.90;102537;277;120661;-57
2023/05/03 10:34:38;;;;;;;;;;;;;;;17.91;30.30;101436.17;102532;277;105945;-56
2023/05/03 10:37:19;;;;;;;;;;;;;;;18.19;30.34;101432.30;102549;277;115792;-55
2023/05/03 10:39:55;;;;;;;;;;;;;;;18.71;30.73;101426.55;102528;277;94074;-55
2023/05/03 10:42:40;;;;;;;;;;;;;;;19.42;30.29;101423.28;102496;277;97824;-56
2023/05/03 10:45:22;;;;;;;;;;;;;;;19.94;30.57;101420.70;102555;277;118583;-59
2023/05/03 10:48:19;;;;;;;;;;;;;;;20.19;30.20;101422.42;102572;277;104216;-57
2023/05/03 10:50:56;;;;;;;;;;;;;;;20.33;30.22;101421.77;102451;278;113893;-58
2023/05/03 10:53:43;;;;;;;;;;;;;;;20.60;29.75;101417.32;102587;277;94730;-58
2023/05/03 10:56:18;;;;;;;;;;;;;;;21.08;29.65;101415.89;102620;278;96841;-56
2023/05/03 10:58:55;;;;;;;;;;;;;;;21.46;29.40;101418.39;102602;278;119689;-57
2023/05/03 11:01:32;;;;;;;;;;;;;;;21.81;29.21;101417.17;102653;278;105109;-56
2023/05/03 11:04:10;;;;;;;;;;;;;;;21.55;28.58;101423.36;102625;278;114391;-55
2023/05/03 11:06:55;;;;;;;;;;;;;;;20.81;28.14;101427.02;102646;278;93967;-55
2023/05/03 11:09:34;;;;;;;;;;;;;;;19.87;28.17;101438.05;102645;278;97883;-56
2023/05/03 11:12:11;;;;;;;;;;;;;;;19.27;28.23;101443.17;102638;278;118674;-55
2023/05/03 11:14:45;;;;;;;;;;;;;;;18.59;29.10;101442.01;102638;278;105080;-55
2023/05/03 11:17:20;;;;;;;;;;;;;;;18.43;29.65;101435.95;102623;278;114099;-55
2023/05/03 11:19:57;;;;;;;;;;;;;;;18.61;29.48;101438.30;102659;278;94937;-56
2023/05/03 11:22:32;;;;;;;;;;;;;;;18.86;29.50;101435.80;102643;277;98282;-57
2023/05/03 11:25:10;;;;;;;;;;;;;;;18.98;29.15;101432.91;101235;278;1800673;-55
2023/05/03 11:27:48;;;;;;;;;;;;;;;18.81;29.09;101430.00;102639;278;105049;-55
2023/05/03 11:30:26;;;;;;;;;;;;;;;18.90;29.48;101433.16;102638;278;113933;-55
2023/05/03 11:33:00;;;;;;;;;;;;;;;19.15;29.58;101431.75;102644;278;92621;-55
2023/05/03 11:35:41;;;;;;;;;;;;;;;19.32;29.56;101434.21;102596;278;97167;-58
2023/05/03 11:38:16;;;;;;;;;;;;;;;19.07;29.56;101439.16;102625;278;118956;-58
2023/05/03 11:41:00;;;;;;;;;;;;;;;18.81;29.79;101441.67;102624;278;105017;-55
2023/05/03 11:43:42;;;;;;;;;;;;;;;18.82;30.21;101445.84;102555;278;114817;-56
2023/05/03 11:46:17;;;;;;;;;;;;;;;19.23;29.89;101440.84;102643;278;94868;-56
2023/05/03 11:48:53;;;;;;;;;;;;;;;19.39;29.71;101430.30;102607;277;98046;-57
2023/05/03 11:51:31;;;;;;;;;;;;;;;19.63;29.71;101433.13;102635;278;119457;-58
2023/05/03 11:54:08;;;;;;;;;;;;;;;19.80;29.61;101433.52;102580;278;106017;-57
2023/05/03 11:56:46;;;;;;;;;;;;;;;19.78;29.12;101433.33;102639;278;113502;-58
2023/05/03 11:59:35;;;;;;;;;;;;;;;19.74;28.74;101435.68;102591;278;94922;-58
2023/05/03 12:02:15;;;;;;;;;;;;;;;19.89;29.12;101438.63;102616;278;96688;-55
2023/05/03 12:04:51;;;;;;;;;;;;;;;19.60;29.01;101446.38;102601;278;120049;-55
2023/05/03 12:07:27;;;;;;;;;;;;;;;19.31;28.84;101438.43;102674;278;105635;-55
2023/05/03 12:10:20;;;;;;;;;;;;;;;19.31;28.81;101437.98;102617;278;114585;-55
2023/05/03 12:12:56;;;;;;;;;;;;;;;19.44;29.02;101437.91;102638;278;95324;-55
2023/05/03 12:15:37;;;;;;;;;;;;;;;18.99;28.62;101438.72;102590;278;96425;-54
2023/05/03 12:18:13;;;;;;;;;;;;;;;18.52;28.64;101435.70;102557;277;120739;-55
2023/05/03 12:20:57;;;;;;;;;;;;;;;18.47;29.39;101432.56;102563;278;105871;-56
2023/05/03 12:23:31;;;;;;;;;;;;;;;18.38;29.54;101432.60;102542;278;114824;-57
2023/05/03 12:26:08;;;;;;;;;;;;;;;18.17;29.78;101432.48;102519;277;93497;-55
2023/05/03 12:28:40;;;;;;;;;;;;;;;18.19;30.10;101427.13;102545;278;97209;-55
2023/05/03 12:31:23;;;;;;;;;;;;;;;18.46;30.20;101423.42;102537;278;119681;-55
2023/05/03 12:33:59;;;;;;;;;;;;;;;18.87;29.72;101424.75;102562;277;104344;-54
2023/05/03 12:36:34;;;;;;;;;;;;;;;18.70;30.11;101425.84;102541;278;115144;-55
2023/05/03 12:39:06;;;;;;;;;;;;;;;18.53;29.71;101420.44;102528;278;93787;-55
2023/05/03 12:41:42;;;;;;;;;;;;;;;18.51;29.26;101418.89;102551;278;96143;-57
2023/05/03 12:44:23;;;;;;;;;;;;;;;18.56;29.24;101415.36;102504;278;119184;-57
2023/05/03 12:47:05;;;;;;;;;;;;;;;18.35;29.26;101418.16;102549;277;104457;-57
2023/05/03 12:49:45;;;;;;;;;;;;;;;18.12;29.48;101415.02;102523;277;114515;-58
2023/05/03 12:52:20;;;;;;;;;;;;;;;18.20;29.35;101408.81;102514;278;94704;-58
2023/05/03 12:54:54;;;;;;;;;;;;;;;18.15;29.36;101412.61;102549;277;96348;-57
2023/05/03 12:57:37;;;;;;;;;;;;;;;17.98;29.61;101414.09;102489;277;118972;-57
2023/05/03 13:00:16;;;;;;;;;;;;;;;17.49;30.40;101416.86;102515;277;104900;-55
2023/05/03 13:02:51;;;;;;;;;;;;;;;17.17;30.77;101419.90;102549;278;114931;-55
2023/05/03 13:05:29;;;;;;;;;;;;;;;16.80;31.03;101421.67;102526;278;93835;-56
2023/05/03 13:08:05;;;;;;;;;;;;;;;16.50;31.20;101417.52;102545;277;98023;-56
2023/05/03 13:10:40;;;;;;;;;;;;;;;16.38;31.16;101413.00;102517;278;119091;-55
2023/05/03 13:13:15;;;;;;;;;;;;;;;16.19;31.37;101413.62;102539;277;106087;-55
2023/05/03 13:15:49;;;;;;;;;;;;;;;15.98;31.61;101412.79;102504;278;112909;-57
2023/05/03 13:18:25;;;;;;;;;;;;;;;15.76;31.76;101412.59;102531;277;94562;-56
2023/05/03 13:21:01;;;;;;;;;;;;;;;15.63;32.16;101411.27;102525;277;97663;-57
2023/05/03 13:23:41;;;;;;;;;;;;;;;15.67;32.35;101406.83;102532;277;120162;-56
2023/05/03 13:26:20;;;;;;;;;;;;;;;15.86;32.50;101398.27;102483;279;105376;-56
2023/05/03 13:28:55;;;;;;;;;;;;;;;16.20;31.76;101391.15;102538;278;114068;-56